ASIAQ
Weather Now
GREENLAND SURVEY
Sorting:
| Location |
Updated [WGT/WGST] |
Temperature [°C] |
Wind [m/s] |
Air pressure [hPa] |
Relative humidity [%] |
Precipitation [mm] |
| Present | Wind chill | Speed | Max |
| Qaanaaq | 04.05 02:00 | -10,2 | n/a | 0,5 ⇖ | 1,4 | 1033 | 74 | 0,0 |
| Kitsissut | 04.05 02:00 | -8,7 | -15,5 | 4,6 ⇘ | 6,2 | 1035 | 77 | n/a |
| Kitsissorsuit | 04.05 02:00 | -15,7 | -25,5 | 6,2 ⇘ | 7,7 | 1030 | 87 | n/a |
| Upernavik | 04.05 02:00 | -12,8 | -20,6 | 4,7 ⇓ | 5,4 | 1017 | 88 | 0,0 |
| Qaarsut | 04.05 02:00 | n/a | n/a | 4,6 ⇗ | n/a | 1020 | n/a | n/a |
| Nuussuaq | 03.05 22:00 | -8,9 | -16,1 | 5,1 ⇙ | 5,7 | 1028 | 57 | n/a |
| Qeqertarsuaq | 04.05 02:00 | -8,3 | -15,7 | 5,5 ⇓ | 7,9 | 1028 | 45 | 0,0 |
| Ilulissat | 04.05 02:00 | -10,7 | -17,9 | 4,6 ⇙ | 6,7 | 1026 | 52 | 0,0 |
| Qasigiannguit | 04.05 02:00 | -10,4 | -17,3 | 4,2 ⇙ | 7,5 | 1027 | 54 | 0,0 |
| Aasiaat | 04.05 02:00 | -8,0 | -16,1 | 6,9 ⇙ | 11,3 | 1024 | 58 | 0,0 |
| Kangerlussuaq | 04.05 02:00 | -6,1 | -11,4 | 3,6 ⇙ | 5,4 | 1019 | 60 | n/a |
| Sisimiut | 04.05 02:00 | -3,7 | -9,3 | 4,6 ⇐ | n/a | 1023 | 47 | 0,0 |
| Maniitsoq | 04.05 02:00 | 2,0 | n/a | 1,2 ⇐ | 1,8 | 1016 | 83 | 0,0 |
| Sioralik | 04.05 02:00 | 1,8 | n/a | n/a | n/a | 1018 | 87 | n/a |
| Niaqornaa | n/a | n/a | n/a | n/a | n/a | n/a | n/a | n/a |
| Qeqertannguaq | 04.05 02:00 | 2,2 | n/a | 0,7 ⇗ | 1,3 | n/a | 96 | n/a |
| Kapisillit | 04.05 02:00 | 2,0 | n/a | 1,3 ⇐ | 2,1 | 1010 | 100 | 0,1 |
| Kuanninnguit | n/a | n/a | n/a | n/a | n/a | n/a | n/a | n/a |
| Nuuk City | 04.05 02:00 | 1,6 | -2,0 | 3,6 ⇙ | 5,5 | 1008 | 100 | 0,1 |
| Ukiiviit | 04.05 02:00 | 2,6 | -0,5 | 3,1 ⇐ | 4,1 | 1016 | 99 | n/a |
| Paamiut | 04.05 02:00 | 2,0 | n/a | 0,4 ⇖ | 0,4 | 1015 | 100 | 0,0 |
| Narsarsuaq | 04.05 02:00 | 2,6 | n/a | 1,0 ⇐ | n/a | 1016 | 82 | n/a |
| Narsaq | 04.05 02:00 | 1,1 | -1,3 | 2,2 ⇘ | 4,3 | 1017 | 99 | 0,0 |
| Nunarsuit | 04.05 02:00 | 2,2 | -2,5 | 5,7 ⇐ | 7,7 | 1015 | 100 | n/a |
| Upernaviarsuk | 04.05 02:00 | 1,4 | 0,0 | 1,4 ⇒ | 3,4 | 1019 | 99 | n/a |
| Qaqortoq | 04.05 02:00 | 1,3 | n/a | 0,6 ⇑ | 2,2 | 1013 | 97 | 0,0 |
| Angisoq | 04.05 02:00 | 1,9 | -2,3 | 4,6 ⇒ | 5,1 | 1018 | 100 | n/a |
| Prins Christian Sund | 04.05 02:00 | -1,9 | -4,8 | 2,1 ⇖ | 3,6 | 1007 | 99 | n/a |
| Nanortalik | 04.05 02:00 | 2,1 | -1,7 | 3,9 ⇙ | 6,5 | 1019 | 97 | n/a |
| Ikermiuarsuk | 04.05 02:00 | -1,2 | -4,0 | 2,1 ⇓ | 2,6 | 1014 | 100 | n/a |
| Ikermit | 04.05 02:00 | 1,9 | -3,6 | 7,2 ⇖ | 7,7 | 1010 | 36 | n/a |
| Kulusuk | 03.05 20:00 | 2,6 | -0,6 | 3,3 ⇒ | 6,5 | 1012 | 38 | n/a |
| Tasiilaq | 04.05 02:00 | 2,4 | -3,5 | 9,0 ⇘ | 13,3 | 1012 | 21 | 0,0 |
| Aputiteeq | 04.05 02:00 | -4,8 | -10,3 | 4,1 ⇓ | 7,7 | 1019 | 77 | n/a |
| Ittoqqortoormiit | 04.05 02:00 | -4,8 | n/a | 0,3 ⇗ | 3,9 | 1012 | 46 | n/a |
| Nerlerit Inaat | n/a | n/a | n/a | n/a | n/a | n/a | n/a | n/a |
| Daneborg | 04.05 02:00 | -4,6 | -13,4 | 11,0 ⇙ | 13,0 | 1020 | 69 | n/a |
| Zackenberg | 03.05 12:00 | n/a | n/a | 6,1 ⇘ | 9,8 | n/a | n/a | n/a |
| Danmarkshavn | 04.05 02:00 | -7,1 | n/a | n/a | 25,0 | 1022 | 90 | n/a |
| Henrik Krøyer Holme | 04.05 02:00 | -8,9 | -22,1 | 21,0 ⇓ | 25,0 | 1024 | 76 | n/a |
| Station Nord | 04.05 02:00 | -10,3 | -17,9 | 5,0 ⇓ | 6,0 | 1028 | 89 | n/a |
| Kap Morris Jesup | 04.05 02:00 | -11,8 | -23,7 | 12,0 ⇒ | 15,0 | 1036 | 81 | n/a |
Advanced version ⤻
Data source - Operated by - Disclaimer ▼